sensor_id;sensor_type;location;lat;lon;timestamp;P1;P2;P0
77413;PMS7003;66486;49.992;19.164;2023-04-03T00:01:17;21.50;19.25;12.00
77413;PMS7003;66486;49.992;19.164;2023-04-03T00:03:44;65.25;55.50;37.75
77413;PMS7003;66486;49.992;19.164;2023-04-03T00:06:10;22.25;20.00;13.50
77413;PMS7003;66486;49.992;19.164;2023-04-03T00:08:37;22.00;21.75;13.00
77413;PMS7003;66486;49.992;19.164;2023-04-03T00:11:03;12.75;12.75;9.25
77413;PMS7003;66486;49.992;19.164;2023-04-03T00:13:30;22.25;18.25;10.00
77413;PMS7003;66486;49.992;19.164;2023-04-03T00:15:57;26.50;24.25;13.50
77413;PMS7003;66486;49.992;19.164;2023-04-03T00:18:23;18.33;18.33;12.33
77413;PMS7003;66486;49.992;19.164;2023-04-03T00:20:49;20.50;17.00;12.25
77413;PMS7003;66486;49.992;19.164;2023-04-03T00:23:15;21.33;20.33;15.00
77413;PMS7003;66486;49.992;19.164;2023-04-03T00:25:41;35.50;34.00;24.00
77413;PMS7003;66486;49.992;19.164;2023-04-03T00:28:08;23.75;23.75;15.00
77413;PMS7003;66486;49.992;19.164;2023-04-03T00:30:34;19.00;16.75;12.75
77413;PMS7003;66486;49.992;19.164;2023-04-03T00:33:00;17.33;16.33;10.00
77413;PMS7003;66486;49.992;19.164;2023-04-03T00:35:27;9.00;9.00;4.50
77413;PMS7003;66486;49.992;19.164;2023-04-03T00:37:54;24.75;24.00;13.50
77413;PMS7003;66486;49.992;19.164;2023-04-03T00:40:21;24.50;20.50;14.00
77413;PMS7003;66486;49.992;19.164;2023-04-03T00:42:52;20.00;18.25;12.50
77413;PMS7003;66486;49.992;19.164;2023-04-03T00:45:41;29.75;22.00;11.00
77413;PMS7003;66486;49.992;19.164;2023-04-03T00:48:14;20.25;15.75;11.00
77413;PMS7003;66486;49.992;19.164;2023-04-03T00:50:43;15.00;14.00;12.00
77413;PMS7003;66486;49.992;19.164;2023-04-03T00:53:17;24.50;23.00;16.00
77413;PMS7003;66486;49.992;19.164;2023-04-03T00:55:48;17.75;17.75;13.00
77413;PMS7003;66486;49.992;19.164;2023-04-03T00:58:17;17.25;16.25;12.25
77413;PMS7003;66486;49.992;19.164;2023-04-03T01:00:46;24.50;20.75;12.75
77413;PMS7003;66486;49.992;19.164;2023-04-03T01:03:21;26.00;24.25;15.75
77413;PMS7003;66486;49.992;19.164;2023-04-03T01:05:47;22.50;22.50;18.25
77413;PMS7003;66486;49.992;19.164;2023-04-03T01:08:13;12.33;12.33;9.67
77413;PMS7003;66486;49.992;19.164;2023-04-03T01:10:39;15.00;13.00;10.00
77413;PMS7003;66486;49.992;19.164;2023-04-03T01:13:18;9.33;9.00;9.00
77413;PMS7003;66486;49.992;19.164;2023-04-03T01:15:47;13.00;13.00;10.00
77413;PMS7003;66486;49.992;19.164;2023-04-03T01:18:13;8.00;8.00;6.00
77413;PMS7003;66486;49.992;19.164;2023-04-03T01:20:47;10.75;10.00;7.50
77413;PMS7003;66486;49.992;19.164;2023-04-03T01:26:10;11.50;10.75;7.50
77413;PMS7003;66486;49.992;19.164;2023-04-03T01:28:37;13.50;13.50;11.00
77413;PMS7003;66486;49.992;19.164;2023-04-03T01:33:43;12.00;12.00;7.00
77413;PMS7003;66486;49.992;19.164;2023-04-03T01:36:14;10.00;10.00;7.50
77413;PMS7003;66486;49.992;19.164;2023-04-03T01:38:42;7.75;7.75;6.25
77413;PMS7003;66486;49.992;19.164;2023-04-03T01:41:08;12.25;12.25;9.75
77413;PMS7003;66486;49.992;19.164;2023-04-03T01:43:34;12.50;11.75;9.50
77413;PMS7003;66486;49.992;19.164;2023-04-03T01:46:01;9.00;9.00;7.00
77413;PMS7003;66486;49.992;19.164;2023-04-03T01:48:26;14.33;13.00;9.67
77413;PMS7003;66486;49.992;19.164;2023-04-03T01:50:53;13.00;12.50;10.25
77413;PMS7003;66486;49.992;19.164;2023-04-03T01:53:19;15.00;14.75;9.00
77413;PMS7003;66486;49.992;19.164;2023-04-03T01:55:45;13.50;13.50;9.50
77413;PMS7003;66486;49.992;19.164;2023-04-03T01:58:11;26.33;22.67;16.00
77413;PMS7003;66486;49.992;19.164;2023-04-03T02:00:37;12.00;12.00;10.00
77413;PMS7003;66486;49.992;19.164;2023-04-03T02:03:03;12.33;12.00;7.00
77413;PMS7003;66486;49.992;19.164;2023-04-03T02:05:29;10.00;8.00;5.50
77413;PMS7003;66486;49.992;19.164;2023-04-03T02:07:55;18.25;15.50;10.75
77413;PMS7003;66486;49.992;19.164;2023-04-03T02:10:22;8.50;8.00;4.00
77413;PMS7003;66486;49.992;19.164;2023-04-03T02:12:47;15.00;15.00;9.33
77413;PMS7003;66486;49.992;19.164;2023-04-03T02:15:14;17.50;17.50;11.75
77413;PMS7003;66486;49.992;19.164;2023-04-03T02:17:39;25.00;22.00;13.67
77413;PMS7003;66486;49.992;19.164;2023-04-03T02:20:06;16.25;15.50;6.50
77413;PMS7003;66486;49.992;19.164;2023-04-03T02:22:32;21.00;18.75;11.50
77413;PMS7003;66486;49.992;19.164;2023-04-03T02:24:58;19.75;17.00;10.00
77413;PMS7003;66486;49.992;19.164;2023-04-03T02:27:24;17.33;16.00;10.67
77413;PMS7003;66486;49.992;19.164;2023-04-03T02:29:50;18.00;18.00;11.50
77413;PMS7003;66486;49.992;19.164;2023-04-03T02:32:16;25.33;25.33;12.67
77413;PMS7003;66486;49.992;19.164;2023-04-03T02:34:42;24.25;24.00;18.25
77413;PMS7003;66486;49.992;19.164;2023-04-03T02:37:08;11.33;11.33;4.67
77413;PMS7003;66486;49.992;19.164;2023-04-03T02:39:34;4.00;3.50;2.50
77413;PMS7003;66486;49.992;19.164;2023-04-03T02:42:00;16.67;16.67;10.00
77413;PMS7003;66486;49.992;19.164;2023-04-03T02:44:26;14.00;13.25;9.00
77413;PMS7003;66486;49.992;19.164;2023-04-03T02:46:52;19.25;18.25;11.50
77413;PMS7003;66486;49.992;19.164;2023-04-03T02:49:18;20.00;19.00;12.50
77413;PMS7003;66486;49.992;19.164;2023-04-03T02:51:44;15.67;15.67;12.33
77413;PMS7003;66486;49.992;19.164;2023-04-03T02:54:11;14.25;14.25;11.25
77413;PMS7003;66486;49.992;19.164;2023-04-03T02:56:37;14.25;14.25;9.25
77413;PMS7003;66486;49.992;19.164;2023-04-03T02:59:03;22.50;21.50;12.75
77413;PMS7003;66486;49.992;19.164;2023-04-03T03:01:30;22.50;22.00;13.00
77413;PMS7003;66486;49.992;19.164;2023-04-03T03:04:01;20.00;20.00;12.50
77413;PMS7003;66486;49.992;19.164;2023-04-03T03:06:27;20.50;18.75;12.75
77413;PMS7003;66486;49.992;19.164;2023-04-03T03:08:55;21.00;20.00;13.50
77413;PMS7003;66486;49.992;19.164;2023-04-03T03:11:21;18.67;18.67;13.00
77413;PMS7003;66486;49.992;19.164;2023-04-03T03:13:47;19.25;18.75;11.00
77413;PMS7003;66486;49.992;19.164;2023-04-03T03:16:13;29.00;24.67;15.00
77413;PMS7003;66486;49.992;19.164;2023-04-03T03:18:39;12.50;12.00;6.25
77413;PMS7003;66486;49.992;19.164;2023-04-03T03:21:05;18.00;16.00;9.00
77413;PMS7003;66486;49.992;19.164;2023-04-03T03:23:31;18.00;17.00;10.50
77413;PMS7003;66486;49.992;19.164;2023-04-03T03:25:58;13.00;12.25;9.00
77413;PMS7003;66486;49.992;19.164;2023-04-03T03:28:26;27.75;27.00;21.00
77413;PMS7003;66486;49.992;19.164;2023-04-03T03:30:52;19.67;19.67;13.67
77413;PMS7003;66486;49.992;19.164;2023-04-03T03:33:18;13.00;13.00;9.00
77413;PMS7003;66486;49.992;19.164;2023-04-03T03:35:44;10.00;9.33;9.00
77413;PMS7003;66486;49.992;19.164;2023-04-03T03:38:11;22.75;22.50;14.75
77413;PMS7003;66486;49.992;19.164;2023-04-03T03:40:37;21.50;20.50;10.00
77413;PMS7003;66486;49.992;19.164;2023-04-03T03:43:03;16.50;15.50;10.50
77413;PMS7003;66486;49.992;19.164;2023-04-03T03:45:29;19.00;19.00;12.00
77413;PMS7003;66486;49.992;19.164;2023-04-03T03:47:55;14.75;14.25;8.50
77413;PMS7003;66486;49.992;19.164;2023-04-03T03:50:21;18.67;16.33;10.00
77413;PMS7003;66486;49.992;19.164;2023-04-03T03:52:47;19.00;17.50;12.50
77413;PMS7003;66486;49.992;19.164;2023-04-03T03:55:12;42.67;40.00;26.33
77413;PMS7003;66486;49.992;19.164;2023-04-03T03:57:39;19.00;19.00;10.50
77413;PMS7003;66486;49.992;19.164;2023-04-03T04:00:05;17.33;15.67;11.33
77413;PMS7003;66486;49.992;19.164;2023-04-03T04:02:32;23.75;21.75;13.50
77413;PMS7003;66486;49.992;19.164;2023-04-03T04:04:58;21.00;17.33;10.67
77413;PMS7003;66486;49.992;19.164;2023-04-03T04:07:24;22.25;20.25;12.75
77413;PMS7003;66486;49.992;19.164;2023-04-03T04:09:53;16.25;15.00;11.00
77413;PMS7003;66486;49.992;19.164;2023-04-03T04:12:19;12.00;10.00;5.75
77413;PMS7003;66486;49.992;19.164;2023-04-03T04:14:46;23.00;22.00;14.50
77413;PMS7003;66486;49.992;19.164;2023-04-03T04:17:12;25.50;21.25;13.00
77413;PMS7003;66486;49.992;19.164;2023-04-03T04:19:39;16.75;16.25;10.50
77413;PMS7003;66486;49.992;19.164;2023-04-03T04:22:05;26.50;26.50;18.00
77413;PMS7003;66486;49.992;19.164;2023-04-03T04:24:31;30.00;28.67;19.67
77413;PMS7003;66486;49.992;19.164;2023-04-03T04:26:57;21.50;21.00;13.00
77413;PMS7003;66486;49.992;19.164;2023-04-03T04:29:23;7.00;7.00;6.00
77413;PMS7003;66486;49.992;19.164;2023-04-03T04:31:49;26.75;23.75;15.00
77413;PMS7003;66486;49.992;19.164;2023-04-03T04:34:15;25.00;21.33;9.67
77413;PMS7003;66486;49.992;19.164;2023-04-03T04:36:41;19.25;16.25;10.75
77413;PMS7003;66486;49.992;19.164;2023-04-03T04:39:07;28.67;26.33;16.00
77413;PMS7003;66486;49.992;19.164;2023-04-03T04:41:33;35.00;32.50;21.50
77413;PMS7003;66486;49.992;19.164;2023-04-03T04:43:59;28.75;27.00;15.25
77413;PMS7003;66486;49.992;19.164;2023-04-03T04:46:26;22.25;20.00;15.00
77413;PMS7003;66486;49.992;19.164;2023-04-03T04:48:52;27.33;25.00;15.67
77413;PMS7003;66486;49.992;19.164;2023-04-03T04:51:18;23.00;21.25;10.50
77413;PMS7003;66486;49.992;19.164;2023-04-03T04:53:44;22.00;20.00;10.00
77413;PMS7003;66486;49.992;19.164;2023-04-03T04:56:11;24.75;24.25;13.00
77413;PMS7003;66486;49.992;19.164;2023-04-03T04:58:37;18.33;16.67;12.00
77413;PMS7003;66486;49.992;19.164;2023-04-03T05:01:04;22.00;20.25;12.25
77413;PMS7003;66486;49.992;19.164;2023-04-03T05:03:32;22.25;19.00;12.25
77413;PMS7003;66486;49.992;19.164;2023-04-03T05:05:58;24.75;21.25;12.00
77413;PMS7003;66486;49.992;19.164;2023-04-03T05:08:25;24.75;24.25;14.75
77413;PMS7003;66486;49.992;19.164;2023-04-03T05:10:51;24.75;23.25;15.25
77413;PMS7003;66486;49.992;19.164;2023-04-03T05:13:18;33.25;28.50;18.25
77413;PMS7003;66486;49.992;19.164;2023-04-03T05:15:45;22.75;22.75;12.50
77413;PMS7003;66486;49.992;19.164;2023-04-03T05:18:11;18.50;16.25;5.25
77413;PMS7003;66486;49.992;19.164;2023-04-03T05:20:38;23.50;21.25;14.50
77413;PMS7003;66486;49.992;19.164;2023-04-03T05:23:04;37.00;34.50;20.00
77413;PMS7003;66486;49.992;19.164;2023-04-03T05:25:31;25.25;23.75;15.50
77413;PMS7003;66486;49.992;19.164;2023-04-03T05:27:57;30.33;27.33;14.33
77413;PMS7003;66486;49.992;19.164;2023-04-03T05:30:23;25.25;23.25;16.50
77413;PMS7003;66486;49.992;19.164;2023-04-03T05:32:49;19.50;18.00;11.50
77413;PMS7003;66486;49.992;19.164;2023-04-03T05:35:16;22.00;21.50;12.00
77413;PMS7003;66486;49.992;19.164;2023-04-03T05:37:42;18.75;18.75;12.50
77413;PMS7003;66486;49.992;19.164;2023-04-03T05:40:08;11.00;9.25;7.00
77413;PMS7003;66486;49.992;19.164;2023-04-03T05:42:34;17.00;15.00;10.00
77413;PMS7003;66486;49.992;19.164;2023-04-03T05:45:01;10.50;9.75;5.00
77413;PMS7003;66486;49.992;19.164;2023-04-03T05:47:27;14.25;13.75;9.25
77413;PMS7003;66486;49.992;19.164;2023-04-03T05:49:53;38.75;36.50;20.50
77413;PMS7003;66486;49.992;19.164;2023-04-03T05:52:29;80.25;62.50;38.25
77413;PMS7003;66486;49.992;19.164;2023-04-03T05:54:57;72.25;58.25;34.00
77413;PMS7003;66486;49.992;19.164;2023-04-03T05:57:23;53.00;47.33;27.00
77413;PMS7003;66486;49.992;19.164;2023-04-03T05:59:49;51.33;45.33;20.67
77413;PMS7003;66486;49.992;19.164;2023-04-03T06:02:16;36.00;35.50;23.25
77413;PMS7003;66486;49.992;19.164;2023-04-03T06:04:44;8.25;7.50;3.75
77413;PMS7003;66486;49.992;19.164;2023-04-03T06:07:18;27.75;25.00;15.50
77413;PMS7003;66486;49.992;19.164;2023-04-03T06:09:48;13.25;13.25;7.00
77413;PMS7003;66486;49.992;19.164;2023-04-03T06:12:14;12.25;12.25;7.50
77413;PMS7003;66486;49.992;19.164;2023-04-03T06:14:41;10.50;10.50;9.50
77413;PMS7003;66486;49.992;19.164;2023-04-03T06:17:07;1.00;1.00;0.00
77413;PMS7003;66486;49.992;19.164;2023-04-03T06:19:34;14.00;11.50;8.00
77413;PMS7003;66486;49.992;19.164;2023-04-03T06:22:01;9.00;7.00;4.00
77413;PMS7003;66486;49.992;19.164;2023-04-03T06:24:28;12.25;10.00;7.00
77413;PMS7003;66486;49.992;19.164;2023-04-03T06:26:56;11.50;11.00;9.00
77413;PMS7003;66486;49.992;19.164;2023-04-03T06:29:23;20.50;17.00;12.25
77413;PMS7003;66486;49.992;19.164;2023-04-03T06:31:49;14.50;14.25;9.00
77413;PMS7003;66486;49.992;19.164;2023-04-03T06:34:16;8.25;8.25;7.25
77413;PMS7003;66486;49.992;19.164;2023-04-03T06:36:43;23.00;21.50;12.25
77413;PMS7003;66486;49.992;19.164;2023-04-03T06:39:14;17.75;17.75;12.75
77413;PMS7003;66486;49.992;19.164;2023-04-03T06:41:42;12.50;10.50;9.25
77413;PMS7003;66486;49.992;19.164;2023-04-03T06:44:09;17.00;15.75;12.50
77413;PMS7003;66486;49.992;19.164;2023-04-03T06:46:37;18.50;16.00;10.00
77413;PMS7003;66486;49.992;19.164;2023-04-03T06:49:04;11.50;11.50;9.00
77413;PMS7003;66486;49.992;19.164;2023-04-03T06:51:33;21.50;20.50;15.25
77413;PMS7003;66486;49.992;19.164;2023-04-03T06:54:01;16.25;16.00;10.50
77413;PMS7003;66486;49.992;19.164;2023-04-03T06:56:27;27.75;23.75;12.50
77413;PMS7003;66486;49.992;19.164;2023-04-03T06:58:54;15.00;15.00;7.00
77413;PMS7003;66486;49.992;19.164;2023-04-03T07:01:23;19.50;16.50;10.50
77413;PMS7003;66486;49.992;19.164;2023-04-03T07:03:51;23.25;22.25;15.75
77413;PMS7003;66486;49.992;19.164;2023-04-03T07:06:18;20.00;18.00;9.75
77413;PMS7003;66486;49.992;19.164;2023-04-03T07:08:45;14.75;12.00;7.50
77413;PMS7003;66486;49.992;19.164;2023-04-03T07:11:13;17.00;16.25;10.00
77413;PMS7003;66486;49.992;19.164;2023-04-03T07:13:40;6.00;6.00;3.00
77413;PMS7003;66486;49.992;19.164;2023-04-03T07:16:06;12.50;12.25;8.50
77413;PMS7003;66486;49.992;19.164;2023-04-03T07:18:34;12.25;11.00;6.75
77413;PMS7003;66486;49.992;19.164;2023-04-03T07:21:00;12.50;10.50;9.00
77413;PMS7003;66486;49.992;19.164;2023-04-03T07:23:27;11.00;10.00;7.00
77413;PMS7003;66486;49.992;19.164;2023-04-03T07:25:53;9.50;9.50;6.75
77413;PMS7003;66486;49.992;19.164;2023-04-03T07:28:20;8.50;8.50;6.50
77413;PMS7003;66486;49.992;19.164;2023-04-03T07:30:48;18.25;16.75;11.00
77413;PMS7003;66486;49.992;19.164;2023-04-03T07:33:17;6.25;6.00;3.25
77413;PMS7003;66486;49.992;19.164;2023-04-03T07:35:44;10.50;10.50;7.00
77413;PMS7003;66486;49.992;19.164;2023-04-03T07:38:11;6.25;6.25;3.50
77413;PMS7003;66486;49.992;19.164;2023-04-03T07:40:37;13.00;13.00;9.00
77413;PMS7003;66486;49.992;19.164;2023-04-03T07:43:04;13.50;10.50;8.50
77413;PMS7003;66486;49.992;19.164;2023-04-03T07:45:31;11.00;10.50;7.00
77413;PMS7003;66486;49.992;19.164;2023-04-03T07:48:00;6.50;5.00;3.00
77413;PMS7003;66486;49.992;19.164;2023-04-03T07:50:27;6.25;6.25;5.50
77413;PMS7003;66486;49.992;19.164;2023-04-03T07:52:53;20.50;20.50;12.50
77413;PMS7003;66486;49.992;19.164;2023-04-03T07:55:21;4.50;4.50;3.75
77413;PMS7003;66486;49.992;19.164;2023-04-03T07:57:48;3.00;3.00;1.50
77413;PMS7003;66486;49.992;19.164;2023-04-03T08:00:14;9.67;9.00;6.67
77413;PMS7003;66486;49.992;19.164;2023-04-03T08:02:43;4.00;4.00;1.00
77413;PMS7003;66486;49.992;19.164;2023-04-03T08:05:10;2.50;2.50;2.50
77413;PMS7003;66486;49.992;19.164;2023-04-03T08:07:37;6.25;5.50;3.75
77413;PMS7003;66486;49.992;19.164;2023-04-03T08:10:03;4.50;4.50;3.50
77413;PMS7003;66486;49.992;19.164;2023-04-03T08:12:30;8.75;8.25;6.00
77413;PMS7003;66486;49.992;19.164;2023-04-03T08:14:57;3.25;3.25;3.00
77413;PMS7003;66486;49.992;19.164;2023-04-03T08:17:26;6.25;6.00;4.00
77413;PMS7003;66486;49.992;19.164;2023-04-03T08:19:52;6.25;6.25;4.00
77413;PMS7003;66486;49.992;19.164;2023-04-03T08:22:18;9.00;8.50;6.00
77413;PMS7003;66486;49.992;19.164;2023-04-03T08:24:44;7.00;7.00;6.00
77413;PMS7003;66486;49.992;19.164;2023-04-03T08:27:10;6.00;4.50;3.00
77413;PMS7003;66486;49.992;19.164;2023-04-03T08:29:36;11.33;9.33;6.33
77413;PMS7003;66486;49.992;19.164;2023-04-03T08:32:04;9.25;9.25;7.00
77413;PMS7003;66486;49.992;19.164;2023-04-03T08:34:30;12.00;10.00;5.50
77413;PMS7003;66486;49.992;19.164;2023-04-03T08:37:00;5.50;5.50;4.00
77413;PMS7003;66486;49.992;19.164;2023-04-03T08:39:27;6.25;6.25;4.25
77413;PMS7003;66486;49.992;19.164;2023-04-03T08:41:55;6.75;6.25;3.75
77413;PMS7003;66486;49.992;19.164;2023-04-03T08:49:51;9.00;9.00;6.25
77413;PMS7003;66486;49.992;19.164;2023-04-03T08:52:37;3.80;3.80;3.00
77413;PMS7003;66486;49.992;19.164;2023-04-03T08:58:12;4.00;3.20;2.60
77413;PMS7003;66486;49.992;19.164;2023-04-03T09:00:47;8.40;8.40;6.00
77413;PMS7003;66486;49.992;19.164;2023-04-03T09:03:21;9.80;9.00;5.60
77413;PMS7003;66486;49.992;19.164;2023-04-03T09:05:52;9.75;9.00;6.00
77413;PMS7003;66486;49.992;19.164;2023-04-03T09:11:09;3.00;3.00;1.80
77413;PMS7003;66486;49.992;19.164;2023-04-03T09:21:41;21.00;21.00;15.00
77413;PMS7003;66486;49.992;19.164;2023-04-03T09:24:09;8.00;5.00;4.00
77413;PMS7003;66486;49.992;19.164;2023-04-03T09:26:40;6.40;3.80;3.80
77413;PMS7003;66486;49.992;19.164;2023-04-03T09:29:13;7.00;6.00;4.00
77413;PMS7003;66486;49.992;19.164;2023-04-03T09:31:43;5.50;5.50;3.00
77413;PMS7003;66486;49.992;19.164;2023-04-03T09:36:52;6.00;6.00;6.00
77413;PMS7003;66486;49.992;19.164;2023-04-03T09:39:27;3.50;3.50;1.00
77413;PMS7003;66486;49.992;19.164;2023-04-03T09:41:59;6.00;5.20;2.60
77413;PMS7003;66486;49.992;19.164;2023-04-03T09:44:31;10.25;10.25;6.25
77413;PMS7003;66486;49.992;19.164;2023-04-03T09:46:59;4.50;4.50;3.00
77413;PMS7003;66486;49.992;19.164;2023-04-03T09:49:42;5.50;5.50;3.25
77413;PMS7003;66486;49.992;19.164;2023-04-03T09:52:18;7.67;6.67;4.67
77413;PMS7003;66486;49.992;19.164;2023-04-03T09:54:51;3.25;2.00;1.00
77413;PMS7003;66486;49.992;19.164;2023-04-03T09:57:17;9.33;8.33;6.00
77413;PMS7003;66486;49.992;19.164;2023-04-03T09:59:46;3.40;3.40;3.20
77413;PMS7003;66486;49.992;19.164;2023-04-03T10:02:39;13.25;13.25;10.00
77413;PMS7003;66486;49.992;19.164;2023-04-03T10:08:19;4.00;3.40;3.00
77413;PMS7003;66486;49.992;19.164;2023-04-03T10:11:07;9.00;6.75;5.00
77413;PMS7003;66486;49.992;19.164;2023-04-03T10:14:20;3.00;2.00;1.00
77413;PMS7003;66486;49.992;19.164;2023-04-03T10:19:09;3.00;3.00;1.40
77413;PMS7003;66486;49.992;19.164;2023-04-03T10:24:52;5.60;4.40;4.00
77413;PMS7003;66486;49.992;19.164;2023-04-03T10:27:40;5.20;5.20;3.40
77413;PMS7003;66486;49.992;19.164;2023-04-03T10:30:33;6.60;6.20;4.00
77413;PMS7003;66486;49.992;19.164;2023-04-03T10:46:53;6.00;6.00;4.00
77413;PMS7003;66486;49.992;19.164;2023-04-03T10:55:02;1.00;1.00;0.40
77413;PMS7003;66486;49.992;19.164;2023-04-03T10:57:50;1.00;1.00;0.80
77413;PMS7003;66486;49.992;19.164;2023-04-03T11:00:21;1.00;1.00;1.00
77413;PMS7003;66486;49.992;19.164;2023-04-03T11:02:57;1.00;1.00;1.00
77413;PMS7003;66486;49.992;19.164;2023-04-03T11:05:34;1.00;1.00;1.00
77413;PMS7003;66486;49.992;19.164;2023-04-03T11:08:21;6.20;3.00;2.20
77413;PMS7003;66486;49.992;19.164;2023-04-03T11:11:08;4.40;4.00;3.80
77413;PMS7003;66486;49.992;19.164;2023-04-03T11:16:43;4.00;4.00;3.00
77413;PMS7003;66486;49.992;19.164;2023-04-03T11:19:15;3.00;1.00;0.20
77413;PMS7003;66486;49.992;19.164;2023-04-03T11:21:51;3.60;2.40;1.80
77413;PMS7003;66486;49.992;19.164;2023-04-03T11:24:26;5.60;5.60;4.00
77413;PMS7003;66486;49.992;19.164;2023-04-03T11:26:55;4.00;3.60;2.60
77413;PMS7003;66486;49.992;19.164;2023-04-03T11:29:23;4.40;4.40;4.00
77413;PMS7003;66486;49.992;19.164;2023-04-03T11:32:02;5.60;4.00;3.80
77413;PMS7003;66486;49.992;19.164;2023-04-03T11:34:50;4.00;4.00;3.40
77413;PMS7003;66486;49.992;19.164;2023-04-03T11:37:33;5.60;5.60;3.20
77413;PMS7003;66486;49.992;19.164;2023-04-03T11:40:28;4.40;4.40;3.60
77413;PMS7003;66486;49.992;19.164;2023-04-03T11:50:46;6.60;6.20;4.60
77413;PMS7003;66486;49.992;19.164;2023-04-03T11:55:43;2.50;2.50;1.00
77413;PMS7003;66486;49.992;19.164;2023-04-03T11:58:20;1.00;1.00;1.00
77413;PMS7003;66486;49.992;19.164;2023-04-03T12:00:55;3.00;3.00;1.00
77413;PMS7003;66486;49.992;19.164;2023-04-03T12:16:04;6.60;6.60;5.20
77413;PMS7003;66486;49.992;19.164;2023-04-03T12:24:39;7.00;7.00;6.00
77413;PMS7003;66486;49.992;19.164;2023-04-03T12:35:21;2.20;2.20;1.80
77413;PMS7003;66486;49.992;19.164;2023-04-03T12:48:37;3.00;3.00;2.00
77413;PMS7003;66486;49.992;19.164;2023-04-03T12:51:18;3.40;3.40;3.00
77413;PMS7003;66486;49.992;19.164;2023-04-03T12:53:56;3.00;3.00;3.00
77413;PMS7003;66486;49.992;19.164;2023-04-03T12:56:30;5.20;5.20;2.60
77413;PMS7003;66486;49.992;19.164;2023-04-03T12:59:14;6.00;4.00;3.00
77413;PMS7003;66486;49.992;19.164;2023-04-03T13:01:59;9.40;7.80;6.60
77413;PMS7003;66486;49.992;19.164;2023-04-03T13:04:26;11.80;11.20;6.00
77413;PMS7003;66486;49.992;19.164;2023-04-03T13:06:54;3.20;3.20;3.00
77413;PMS7003;66486;49.992;19.164;2023-04-03T13:09:21;7.80;7.00;4.00
77413;PMS7003;66486;49.992;19.164;2023-04-03T13:11:48;1.00;1.00;1.00
77413;PMS7003;66486;49.992;19.164;2023-04-03T13:14:18;9.20;6.40;5.20
77413;PMS7003;66486;49.992;19.164;2023-04-03T13:16:55;0.60;0.60;0.40
77413;PMS7003;66486;49.992;19.164;2023-04-03T13:19:24;4.80;4.80;3.80
77413;PMS7003;66486;49.992;19.164;2023-04-03T13:22:03;7.80;7.80;6.00
77413;PMS7003;66486;49.992;19.164;2023-04-03T13:24:37;5.20;4.80;4.00
77413;PMS7003;66486;49.992;19.164;2023-04-03T13:27:05;1.00;0.00;0.00
77413;PMS7003;66486;49.992;19.164;2023-04-03T13:29:34;9.40;7.40;6.00
77413;PMS7003;66486;49.992;19.164;2023-04-03T13:32:02;15.40;11.40;7.80
77413;PMS7003;66486;49.992;19.164;2023-04-03T13:34:37;7.40;7.40;5.60
77413;PMS7003;66486;49.992;19.164;2023-04-03T13:37:11;4.40;4.40;4.00
77413;PMS7003;66486;49.992;19.164;2023-04-03T13:40:02;3.60;3.60;3.00
77413;PMS7003;66486;49.992;19.164;2023-04-03T13:42:32;3.20;3.20;3.20
77413;PMS7003;66486;49.992;19.164;2023-04-03T13:45:10;6.00;4.40;4.00
77413;PMS7003;66486;49.992;19.164;2023-04-03T13:47:38;6.40;5.60;3.60
77413;PMS7003;66486;49.992;19.164;2023-04-03T13:52:47;5.60;4.00;3.60
77413;PMS7003;66486;49.992;19.164;2023-04-03T14:00:21;4.40;4.40;4.00
77413;PMS7003;66486;49.992;19.164;2023-04-03T14:02:54;3.60;3.60;1.00
77413;PMS7003;66486;49.992;19.164;2023-04-03T14:05:22;1.80;1.80;1.80
77413;PMS7003;66486;49.992;19.164;2023-04-03T14:07:51;6.00;6.00;3.40
77413;PMS7003;66486;49.992;19.164;2023-04-03T14:10:17;6.00;5.20;5.20
77413;PMS7003;66486;49.992;19.164;2023-04-03T14:12:43;4.00;3.20;2.20
77413;PMS7003;66486;49.992;19.164;2023-04-03T14:17:53;7.80;7.00;7.00
77413;PMS7003;66486;49.992;19.164;2023-04-03T14:20:21;8.60;8.60;6.00
77413;PMS7003;66486;49.992;19.164;2023-04-03T14:22:50;9.60;8.20;4.80
77413;PMS7003;66486;49.992;19.164;2023-04-03T14:25:17;12.00;9.80;6.80
77413;PMS7003;66486;49.992;19.164;2023-04-03T14:27:45;6.00;4.80;4.00
77413;PMS7003;66486;49.992;19.164;2023-04-03T14:30:17;6.80;6.80;6.20
77413;PMS7003;66486;49.992;19.164;2023-04-03T14:32:46;3.40;3.40;3.00
77413;PMS7003;66486;49.992;19.164;2023-04-03T14:35:13;1.00;1.00;1.00
77413;PMS7003;66486;49.992;19.164;2023-04-03T14:37:41;4.40;4.40;3.80
77413;PMS7003;66486;49.992;19.164;2023-04-03T14:40:11;0.00;0.00;0.00
77413;PMS7003;66486;49.992;19.164;2023-04-03T14:42:40;4.40;4.40;4.00
77413;PMS7003;66486;49.992;19.164;2023-04-03T14:45:07;5.00;4.00;3.00
77413;PMS7003;66486;49.992;19.164;2023-04-03T14:47:44;4.00;4.00;4.00
77413;PMS7003;66486;49.992;19.164;2023-04-03T14:50:14;4.00;4.00;4.00
77413;PMS7003;66486;49.992;19.164;2023-04-03T14:52:49;6.40;6.40;4.40
77413;PMS7003;66486;49.992;19.164;2023-04-03T14:55:18;6.20;4.80;4.00
77413;PMS7003;66486;49.992;19.164;2023-04-03T14:57:45;7.00;7.00;6.00
77413;PMS7003;66486;49.992;19.164;2023-04-03T15:00:18;4.50;4.50;3.00
77413;PMS7003;66486;49.992;19.164;2023-04-03T15:02:47;7.00;7.00;6.00
77413;PMS7003;66486;49.992;19.164;2023-04-03T15:05:14;4.80;4.80;4.00
77413;PMS7003;66486;49.992;19.164;2023-04-03T15:07:42;2.20;2.20;1.00
77413;PMS7003;66486;49.992;19.164;2023-04-03T15:10:19;6.60;6.00;4.00
77413;PMS7003;66486;49.992;19.164;2023-04-03T15:12:48;10.40;7.00;6.00
77413;PMS7003;66486;49.992;19.164;2023-04-03T15:15:14;7.20;7.20;6.40
77413;PMS7003;66486;49.992;19.164;2023-04-03T15:17:42;8.20;8.20;6.20
77413;PMS7003;66486;49.992;19.164;2023-04-03T15:20:15;9.60;9.40;6.00
77413;PMS7003;66486;49.992;19.164;2023-04-03T15:22:44;4.00;3.80;3.00
77413;PMS7003;66486;49.992;19.164;2023-04-03T15:25:10;9.25;8.00;6.75
77413;PMS7003;66486;49.992;19.164;2023-04-03T15:27:36;3.00;3.00;3.00
77413;PMS7003;66486;49.992;19.164;2023-04-03T15:30:04;7.80;7.80;6.00
77413;PMS7003;66486;49.992;19.164;2023-04-03T15:32:31;2.20;2.20;2.20
77413;PMS7003;66486;49.992;19.164;2023-04-03T15:34:58;8.20;8.20;5.20
77413;PMS7003;66486;49.992;19.164;2023-04-03T15:37:25;10.40;10.40;7.40
77413;PMS7003;66486;49.992;19.164;2023-04-03T15:39:51;8.00;7.50;6.00
77413;PMS7003;66486;49.992;19.164;2023-04-03T15:42:17;18.00;17.00;12.00
77413;PMS7003;66486;49.992;19.164;2023-04-03T15:44:43;12.00;10.50;9.25
77413;PMS7003;66486;49.992;19.164;2023-04-03T15:47:09;6.00;6.00;4.00
77413;PMS7003;66486;49.992;19.164;2023-04-03T15:49:35;7.20;6.40;3.00
77413;PMS7003;66486;49.992;19.164;2023-04-03T15:52:01;11.75;10.50;8.00
77413;PMS7003;66486;49.992;19.164;2023-04-03T15:54:28;12.80;10.40;7.00
77413;PMS7003;66486;49.992;19.164;2023-04-03T15:56:55;3.00;3.00;1.40
77413;PMS7003;66486;49.992;19.164;2023-04-03T15:59:21;11.80;11.80;6.00